Time;durP1;ratioP1;P1;durP2;ratioP2;P2;SDS_P1;SDS_P2;PMS_P1;PMS_P2;Temp;Humidity;BMP_temperature;BMP_pressure;BME280_temperature;BME280_humidity;BME280_pressure;Samples;Min_cycle;Max_cycle;Signal;HPM_P1;HPM_P2
2023/08/05 00:01:52;;;;;;;0.10;0.10;;;;;;;;;;5107811;28;20051;-61
2023/08/05 00:04:18;;;;;;;0.20;0.20;;;;;;;;;;5106216;28;20047;-62
2023/08/05 00:06:44;;;;;;;0.20;0.20;;;;;;;;;;5106151;28;20051;-61
2023/08/05 00:09:09;;;;;;;0.20;0.20;;;;;;;;;;5106716;28;20085;-62
2023/08/05 00:11:35;;;;;;;0.20;0.20;;;;;;;;;;5106403;28;20051;-62
2023/08/05 00:14:00;;;;;;;0.20;0.20;;;;;;;;;;5107381;28;20419;-61
2023/08/05 00:16:26;;;;;;;0.20;0.20;;;;;;;;;;5106661;28;20424;-61
2023/08/05 00:18:52;;;;;;;0.20;0.20;;;;;;;;;;5107330;28;20047;-61
2023/08/05 00:21:18;;;;;;;0.15;0.15;;;;;;;;;;5107491;28;20134;-62
2023/08/05 00:23:43;;;;;;;0.10;0.10;;;;;;;;;;5106011;28;20052;-62
2023/08/05 00:26:09;;;;;;;0.20;0.20;;;;;;;;;;5107767;28;20058;-62
2023/08/05 00:28:34;;;;;;;0.10;0.10;;;;;;;;;;5106853;28;20067;-62
2023/08/05 00:31:00;;;;;;;0.10;0.10;;;;;;;;;;5106387;28;20056;-62
2023/08/05 00:33:25;;;;;;;0.20;0.20;;;;;;;;;;5106241;28;20044;-62
2023/08/05 00:35:51;;;;;;;0.20;0.20;;;;;;;;;;5109496;28;20047;-60
2023/08/05 00:38:16;;;;;;;0.20;0.20;;;;;;;;;;5109615;28;20056;-61
2023/08/05 00:40:43;;;;;;;0.17;0.17;;;;;;;;;;5102246;28;20071;-60
2023/08/05 00:43:09;;;;;;;0.10;0.10;;;;;;;;;;5108637;28;20054;-61
2023/08/05 00:45:34;;;;;;;0.10;0.10;;;;;;;;;;5110000;28;20052;-61
2023/08/05 00:48:00;;;;;;;0.10;0.10;;;;;;;;;;5109662;28;20093;-62
2023/08/05 00:50:26;;;;;;;0.20;0.20;;;;;;;;;;5101747;27;20492;-61
2023/08/05 00:52:51;;;;;;;0.10;0.10;;;;;;;;;;5109668;28;20484;-62
2023/08/05 00:55:17;;;;;;;0.20;0.20;;;;;;;;;;5109636;28;20146;-62
2023/08/05 00:57:43;;;;;;;0.20;0.20;;;;;;;;;;5109329;28;20142;-62
2023/08/05 01:00:08;;;;;;;0.10;0.10;;;;;;;;;;5109838;28;20429;-62
2023/08/05 01:02:34;;;;;;;0.15;0.15;;;;;;;;;;5109541;28;20057;-62
2023/08/05 01:05:00;;;;;;;0.20;0.20;;;;;;;;;;5109018;28;20047;-62
2023/08/05 01:07:25;;;;;;;0.20;0.20;;;;;;;;;;5108650;28;20055;-61
2023/08/05 01:09:51;;;;;;;0.20;0.20;;;;;;;;;;5109235;28;20463;-62
2023/08/05 01:12:17;;;;;;;0.10;0.10;;;;;;;;;;5108380;28;20081;-62
2023/08/05 01:14:42;;;;;;;0.10;0.10;;;;;;;;;;5109107;28;20494;-62
2023/08/05 01:17:08;;;;;;;0.10;0.10;;;;;;;;;;5110336;28;20052;-62
2023/08/05 01:19:34;;;;;;;0.10;0.10;;;;;;;;;;5109595;28;20062;-62
2023/08/05 01:22:20;;;;;;;0.20;0.20;;;;;;;;;;5110095;28;20407;-62
2023/08/05 01:24:50;;;;;;;0.10;0.10;;;;;;;;;;5094439;28;20075;-61
2023/08/05 01:27:17;;;;;;;0.15;0.15;;;;;;;;;;5109881;28;20035;-62
2023/08/05 01:29:42;;;;;;;0.20;0.20;;;;;;;;;;5109793;28;20062;-62
2023/08/05 01:32:09;;;;;;;0.20;0.20;;;;;;;;;;5108975;28;20505;-61
2023/08/05 01:34:36;;;;;;;0.20;0.20;;;;;;;;;;5109063;28;20537;-62
2023/08/05 01:37:01;;;;;;;0.20;0.20;;;;;;;;;;5108925;28;20436;-61
2023/08/05 01:39:27;;;;;;;0.20;0.20;;;;;;;;;;5109473;28;20537;-62
2023/08/05 01:41:52;;;;;;;0.20;0.20;;;;;;;;;;5108467;28;20082;-62
2023/08/05 01:44:18;;;;;;;0.17;0.17;;;;;;;;;;5108518;28;20043;-61
2023/08/05 01:46:43;;;;;;;0.17;0.17;;;;;;;;;;5109537;28;20040;-62
2023/08/05 01:49:09;;;;;;;0.20;0.20;;;;;;;;;;5111240;28;20407;-62
2023/08/05 01:51:34;;;;;;;0.10;0.10;;;;;;;;;;5114343;28;20040;-62
2023/08/05 01:54:00;;;;;;;0.10;0.10;;;;;;;;;;5109115;28;20435;-62
2023/08/05 01:56:25;;;;;;;0.13;0.13;;;;;;;;;;5109625;28;20755;-62
2023/08/05 01:58:51;;;;;;;0.10;0.10;;;;;;;;;;5108339;28;20064;-62
2023/08/05 02:01:16;;;;;;;0.10;0.10;;;;;;;;;;5109301;28;20432;-61
2023/08/05 02:03:42;;;;;;;0.17;0.17;;;;;;;;;;5107859;28;20065;-62
2023/08/05 02:06:08;;;;;;;0.10;0.10;;;;;;;;;;5108931;28;20044;-61
2023/08/05 02:08:33;;;;;;;0.20;0.20;;;;;;;;;;5107470;28;20157;-62
2023/08/05 02:10:59;;;;;;;0.10;0.10;;;;;;;;;;5108174;28;20343;-61
2023/08/05 02:13:24;;;;;;;0.20;0.20;;;;;;;;;;5107794;28;20051;-62
2023/08/05 02:15:50;;;;;;;0.20;0.20;;;;;;;;;;5108615;28;20051;-62
2023/08/05 02:18:15;;;;;;;0.20;0.20;;;;;;;;;;5108050;28;20089;-61
2023/08/05 02:20:41;;;;;;;0.10;0.10;;;;;;;;;;5102609;28;20416;-62
2023/08/05 02:23:07;;;;;;;0.10;0.10;;;;;;;;;;5108231;28;20052;-62
2023/08/05 02:25:32;;;;;;;0.20;0.20;;;;;;;;;;5108706;28;20051;-62
2023/08/05 02:27:58;;;;;;;0.20;0.20;;;;;;;;;;5108171;28;20418;-62
2023/08/05 02:30:23;;;;;;;0.10;0.10;;;;;;;;;;5107729;28;20097;-62
2023/08/05 02:32:49;;;;;;;0.10;0.10;;;;;;;;;;5108001;28;20047;-61
2023/08/05 02:35:15;;;;;;;0.20;0.20;;;;;;;;;;5107294;28;20136;-62
2023/08/05 02:37:40;;;;;;;0.20;0.20;;;;;;;;;;5106100;28;20095;-61
2023/08/05 02:40:07;;;;;;;0.20;0.20;;;;;;;;;;5108059;28;20055;-61
2023/08/05 02:42:32;;;;;;;0.15;0.15;;;;;;;;;;5108404;28;20059;-62
2023/08/05 02:44:58;;;;;;;0.17;0.17;;;;;;;;;;5107878;28;20085;-62
2023/08/05 02:47:23;;;;;;;0.20;0.20;;;;;;;;;;5108691;28;20047;-62
2023/08/05 02:49:49;;;;;;;0.20;0.20;;;;;;;;;;5108618;28;20044;-62
2023/08/05 02:52:14;;;;;;;0.10;0.10;;;;;;;;;;5109315;28;20052;-62
2023/08/05 02:54:40;;;;;;;0.20;0.20;;;;;;;;;;5108536;28;20470;-61
2023/08/05 02:57:05;;;;;;;0.20;0.20;;;;;;;;;;5107819;28;20048;-62
2023/08/05 02:59:31;;;;;;;0.20;0.20;;;;;;;;;;5109137;28;20634;-62
2023/08/05 03:01:57;;;;;;;0.10;0.10;;;;;;;;;;5108438;28;20147;-62
2023/08/05 03:04:22;;;;;;;0.20;0.20;;;;;;;;;;5107610;28;20401;-62
2023/08/05 03:06:48;;;;;;;0.20;0.20;;;;;;;;;;5107688;28;20036;-61
2023/08/05 03:09:14;;;;;;;0.10;0.10;;;;;;;;;;5107914;28;20113;-61
2023/08/05 03:11:39;;;;;;;0.20;0.20;;;;;;;;;;5107484;28;20428;-61
2023/08/05 03:14:05;;;;;;;0.20;0.20;;;;;;;;;;5107989;28;20047;-61
2023/08/05 03:16:30;;;;;;;0.15;0.15;;;;;;;;;;5108516;28;20047;-62
2023/08/05 03:18:56;;;;;;;0.20;0.20;;;;;;;;;;5108698;28;20051;-62
2023/08/05 03:21:22;;;;;;;0.20;0.20;;;;;;;;;;5108497;28;20531;-62
2023/08/05 03:23:47;;;;;;;0.20;0.20;;;;;;;;;;5107034;28;20073;-61
2023/08/05 03:26:13;;;;;;;0.20;0.20;;;;;;;;;;5108526;28;20506;-62
2023/08/05 03:28:38;;;;;;;0.10;0.10;;;;;;;;;;5107898;28;20066;-62
2023/08/05 03:31:04;;;;;;;0.20;0.20;;;;;;;;;;5107819;28;20051;-61
2023/08/05 03:33:29;;;;;;;0.10;0.10;;;;;;;;;;5106615;28;20085;-61
2023/08/05 03:35:55;;;;;;;0.20;0.20;;;;;;;;;;5107113;28;20055;-61
2023/08/05 03:38:20;;;;;;;0.20;0.20;;;;;;;;;;5107005;28;20134;-61
2023/08/05 03:40:46;;;;;;;0.10;0.10;;;;;;;;;;5107964;28;20047;-61
2023/08/05 03:43:11;;;;;;;0.20;0.20;;;;;;;;;;5107692;28;20062;-62
2023/08/05 03:45:37;;;;;;;0.20;0.20;;;;;;;;;;5107391;28;20070;-61
2023/08/05 03:48:03;;;;;;;0.10;0.10;;;;;;;;;;5108107;28;20542;-62
2023/08/05 03:50:28;;;;;;;0.20;0.20;;;;;;;;;;5107744;28;20446;-62
2023/08/05 03:52:55;;;;;;;0.20;0.20;;;;;;;;;;5107828;28;20504;-61
2023/08/05 03:55:21;;;;;;;0.10;0.10;;;;;;;;;;5107094;28;20581;-62
2023/08/05 03:57:47;;;;;;;0.20;0.20;;;;;;;;;;5108088;28;20047;-62
2023/08/05 04:00:13;;;;;;;0.20;0.20;;;;;;;;;;5107789;28;20077;-62
2023/08/05 04:02:39;;;;;;;0.20;0.20;;;;;;;;;;5107290;28;20047;-61
2023/08/05 04:05:04;;;;;;;0.20;0.20;;;;;;;;;;5107187;28;20052;-60
2023/08/05 04:07:30;;;;;;;0.20;0.20;;;;;;;;;;5106924;28;20135;-62
2023/08/05 04:09:56;;;;;;;0.10;0.10;;;;;;;;;;5109126;28;20044;-61
2023/08/05 04:12:21;;;;;;;0.20;0.20;;;;;;;;;;5109729;28;20375;-62
2023/08/05 04:14:50;;;;;;;0.20;0.20;;;;;;;;;;5110795;28;20337;-62
2023/08/05 04:17:15;;;;;;;0.20;0.20;;;;;;;;;;5110787;28;20050;-62
2023/08/05 04:19:42;;;;;;;0.20;0.20;;;;;;;;;;5111406;28;20051;-62
2023/08/05 04:22:07;;;;;;;0.20;0.20;;;;;;;;;;5110979;28;20040;-62
2023/08/05 04:24:33;;;;;;;0.17;0.17;;;;;;;;;;5110269;28;20385;-62
2023/08/05 04:26:59;;;;;;;0.20;0.20;;;;;;;;;;5111322;28;20058;-61
2023/08/05 04:29:25;;;;;;;0.20;0.20;;;;;;;;;;5110957;28;20048;-62
2023/08/05 04:31:52;;;;;;;0.20;0.20;;;;;;;;;;5111106;28;20073;-62
2023/08/05 04:34:18;;;;;;;0.20;0.20;;;;;;;;;;5110119;28;20054;-62
2023/08/05 04:36:50;;;;;;;0.20;0.20;;;;;;;;;;5110435;28;20052;-61
2023/08/05 04:41:26;;;;;;;0.20;0.20;;;;;;;;;;5158263;27;20154;-59
2023/08/05 04:43:52;;;;;;;0.20;0.20;;;;;;;;;;5144480;27;20055;-58
2023/08/05 04:46:17;;;;;;;0.20;0.20;;;;;;;;;;5145319;27;20092;-59
2023/08/05 04:48:43;;;;;;;0.20;0.20;;;;;;;;;;5143832;27;20074;-59
2023/08/05 04:51:08;;;;;;;0.57;0.35;;;;;;;;;;5152384;27;20250;-59
2023/08/05 04:53:34;;;;;;;0.20;0.20;;;;;;;;;;5144752;27;20403;-59
2023/08/05 04:55:59;;;;;;;0.20;0.20;;;;;;;;;;5145758;27;20141;-59
2023/08/05 04:58:25;;;;;;;0.20;0.20;;;;;;;;;;5145356;27;20055;-59
2023/08/05 05:00:55;;;;;;;0.20;0.20;;;;;;;;;;5140372;27;20135;-60
2023/08/05 05:03:20;;;;;;;0.10;0.10;;;;;;;;;;5124968;28;20051;-58
2023/08/05 05:05:46;;;;;;;0.20;0.20;;;;;;;;;;5123996;28;20192;-58
2023/08/05 05:08:11;;;;;;;0.20;0.20;;;;;;;;;;5134726;27;20054;-59
2023/08/05 05:10:45;;;;;;;0.10;0.10;;;;;;;;;;5136934;27;20047;-59
2023/08/05 05:13:11;;;;;;;0.10;0.10;;;;;;;;;;5126765;27;20453;-59
2023/08/05 05:15:36;;;;;;;0.20;0.20;;;;;;;;;;5127374;27;20043;-59
2023/08/05 05:18:02;;;;;;;0.20;0.20;;;;;;;;;;5125138;28;20051;-59
2023/08/05 05:20:27;;;;;;;0.20;0.20;;;;;;;;;;5134810;27;20062;-59
2023/08/05 05:22:53;;;;;;;0.20;0.20;;;;;;;;;;5123709;28;20053;-59
2023/08/05 05:25:18;;;;;;;0.20;0.20;;;;;;;;;;5124613;27;20127;-59
2023/08/05 05:27:44;;;;;;;0.20;0.20;;;;;;;;;;5124660;27;20047;-59
2023/08/05 05:30:10;;;;;;;0.20;0.20;;;;;;;;;;5124481;28;20067;-59
2023/08/05 05:32:35;;;;;;;0.20;0.20;;;;;;;;;;5124631;28;20472;-59
2023/08/05 05:35:01;;;;;;;0.70;0.20;;;;;;;;;;5124179;28;20047;-59
2023/08/05 05:37:26;;;;;;;0.20;0.20;;;;;;;;;;5142715;27;20176;-60
2023/08/05 05:39:52;;;;;;;0.20;0.20;;;;;;;;;;5139868;27;20039;-60
2023/08/05 05:42:17;;;;;;;0.20;0.20;;;;;;;;;;5135786;27;20069;-58
2023/08/05 05:44:50;;;;;;;0.20;0.20;;;;;;;;;;5135801;27;20407;-60
2023/08/05 05:47:16;;;;;;;0.10;0.10;;;;;;;;;;5127104;27;20335;-59
2023/08/05 05:49:41;;;;;;;0.20;0.20;;;;;;;;;;5143360;27;20411;-59
2023/08/05 05:52:07;;;;;;;0.20;0.20;;;;;;;;;;5123349;27;20046;-59
2023/08/05 05:54:33;;;;;;;0.20;0.20;;;;;;;;;;5123847;28;20070;-59
2023/08/05 05:56:58;;;;;;;0.20;0.20;;;;;;;;;;5111099;28;20092;-59
2023/08/05 05:59:25;;;;;;;0.20;0.20;;;;;;;;;;5110286;28;20059;-59
2023/08/05 06:01:51;;;;;;;0.10;0.10;;;;;;;;;;5109040;28;20140;-59
2023/08/05 06:04:18;;;;;;;0.15;0.15;;;;;;;;;;5109531;28;20048;-59
2023/08/05 06:06:48;;;;;;;0.10;0.10;;;;;;;;;;5110971;28;20077;-59
2023/08/05 06:09:15;;;;;;;0.20;0.20;;;;;;;;;;5110230;28;20396;-59
2023/08/05 06:11:40;;;;;;;0.20;0.20;;;;;;;;;;5109978;28;20120;-58
2023/08/05 06:14:06;;;;;;;0.10;0.10;;;;;;;;;;5109510;28;20048;-59
2023/08/05 06:16:32;;;;;;;0.13;0.13;;;;;;;;;;5127001;28;20480;-59
2023/08/05 06:18:59;;;;;;;0.10;0.10;;;;;;;;;;5131119;28;20468;-59
2023/08/05 06:21:25;;;;;;;0.20;0.20;;;;;;;;;;5118907;28;20058;-59
2023/08/05 06:23:51;;;;;;;0.20;0.20;;;;;;;;;;5109909;28;20052;-59
2023/08/05 06:26:16;;;;;;;0.10;0.10;;;;;;;;;;5110379;28;20104;-59
2023/08/05 06:28:42;;;;;;;0.20;0.20;;;;;;;;;;5124686;28;20054;-59
2023/08/05 06:31:07;;;;;;;0.20;0.20;;;;;;;;;;5118998;28;20047;-59
2023/08/05 06:33:33;;;;;;;0.10;0.10;;;;;;;;;;5109398;28;20086;-59
2023/08/05 06:35:58;;;;;;;0.20;0.20;;;;;;;;;;5109897;28;20047;-59
2023/08/05 06:38:26;;;;;;;0.20;0.20;;;;;;;;;;5111732;28;20450;-59
2023/08/05 06:40:52;;;;;;;0.10;0.10;;;;;;;;;;5109914;28;20043;-59
2023/08/05 06:43:17;;;;;;;0.20;0.20;;;;;;;;;;5109622;28;20570;-59
2023/08/05 06:45:43;;;;;;;0.20;0.20;;;;;;;;;;5110299;28;20055;-59
2023/08/05 06:48:08;;;;;;;0.20;0.20;;;;;;;;;;5130169;28;20047;-59
2023/08/05 06:50:34;;;;;;;0.20;0.20;;;;;;;;;;5126639;28;20043;-59
2023/08/05 06:53:00;;;;;;;0.10;0.10;;;;;;;;;;5109801;28;20058;-59
2023/08/05 06:55:25;;;;;;;0.15;0.15;;;;;;;;;;5116442;28;20048;-59
2023/08/05 06:57:51;;;;;;;0.10;0.10;;;;;;;;;;5109498;28;20521;-59
2023/08/05 07:00:16;;;;;;;0.10;0.10;;;;;;;;;;5108919;28;20248;-59
2023/08/05 07:02:42;;;;;;;0.20;0.20;;;;;;;;;;5108488;28;20479;-59
2023/08/05 07:05:08;;;;;;;0.10;0.10;;;;;;;;;;5108774;28;20149;-59
2023/08/05 07:07:34;;;;;;;0.20;0.20;;;;;;;;;;5109626;28;20051;-59
2023/08/05 07:10:03;;;;;;;0.20;0.20;;;;;;;;;;5109023;28;20306;-59
2023/08/05 07:12:28;;;;;;;0.20;0.20;;;;;;;;;;5119124;28;20043;-58
2023/08/05 07:14:54;;;;;;;0.15;0.15;;;;;;;;;;5122771;28;20055;-59
2023/08/05 07:17:20;;;;;;;0.20;0.20;;;;;;;;;;5109587;28;20392;-59
2023/08/05 07:19:46;;;;;;;0.10;0.10;;;;;;;;;;5109547;28;20096;-60
2023/08/05 07:22:11;;;;;;;0.20;0.20;;;;;;;;;;5111926;28;20074;-59
2023/08/05 07:24:37;;;;;;;0.20;0.20;;;;;;;;;;5123976;28;20048;-59
2023/08/05 07:27:03;;;;;;;0.20;0.20;;;;;;;;;;5109292;28;20475;-59
2023/08/05 07:29:28;;;;;;;0.20;0.20;;;;;;;;;;5109289;28;20044;-59
2023/08/05 07:31:55;;;;;;;0.20;0.20;;;;;;;;;;5108664;28;20055;-59
2023/08/05 07:34:22;;;;;;;0.20;0.20;;;;;;;;;;5107555;28;20168;-59
2023/08/05 07:36:48;;;;;;;0.20;0.20;;;;;;;;;;5108814;28;20039;-59
2023/08/05 07:39:13;;;;;;;0.20;0.20;;;;;;;;;;5091547;28;20108;-59
2023/08/05 07:41:39;;;;;;;0.17;0.17;;;;;;;;;;5111852;28;20496;-59
2023/08/05 07:44:04;;;;;;;0.30;0.30;;;;;;;;;;5126898;28;20075;-59
2023/08/05 07:46:31;;;;;;;0.20;0.20;;;;;;;;;;5121554;28;20375;-59
2023/08/05 07:48:58;;;;;;;0.10;0.10;;;;;;;;;;5129278;28;20069;-59
2023/08/05 07:51:24;;;;;;;0.20;0.20;;;;;;;;;;5101896;28;20047;-59
2023/08/05 07:53:50;;;;;;;0.20;0.20;;;;;;;;;;5122189;28;20043;-59
2023/08/05 07:56:15;;;;;;;0.20;0.20;;;;;;;;;;5122729;28;20393;-59
2023/08/05 07:58:45;;;;;;;0.20;0.20;;;;;;;;;;5128717;28;20099;-59
2023/08/05 08:01:13;;;;;;;0.20;0.20;;;;;;;;;;5115935;28;20116;-59
2023/08/05 08:03:40;;;;;;;0.10;0.10;;;;;;;;;;5107685;28;20365;-59
2023/08/05 08:06:06;;;;;;;0.20;0.20;;;;;;;;;;5108392;28;20059;-59
2023/08/05 08:08:31;;;;;;;0.20;0.20;;;;;;;;;;5107455;28;20130;-59
2023/08/05 08:10:57;;;;;;;0.20;0.20;;;;;;;;;;5110789;28;20050;-58
2023/08/05 08:13:22;;;;;;;0.10;0.10;;;;;;;;;;5107794;28;20044;-59
2023/08/05 08:15:48;;;;;;;0.20;0.20;;;;;;;;;;5107346;28;20055;-59
2023/08/05 08:18:13;;;;;;;0.20;0.20;;;;;;;;;;5115075;28;20043;-59
2023/08/05 08:20:39;;;;;;;0.20;0.20;;;;;;;;;;5111967;28;20464;-59
2023/08/05 08:23:04;;;;;;;0.20;0.20;;;;;;;;;;5107592;28;20411;-59
2023/08/05 08:25:30;;;;;;;0.20;0.20;;;;;;;;;;5117513;28;20559;-59
2023/08/05 08:27:55;;;;;;;0.20;0.20;;;;;;;;;;5127581;28;20384;-59
2023/08/05 08:30:21;;;;;;;0.20;0.20;;;;;;;;;;5110729;28;20503;-59
2023/08/05 08:32:46;;;;;;;0.20;0.20;;;;;;;;;;5107828;28;20455;-59
2023/08/05 08:35:12;;;;;;;0.20;0.20;;;;;;;;;;5106831;28;20039;-59
2023/08/05 08:37:39;;;;;;;0.10;0.10;;;;;;;;;;5108349;28;20105;-58
2023/08/05 08:40:05;;;;;;;0.20;0.20;;;;;;;;;;5108171;28;20060;-55
2023/08/05 08:42:31;;;;;;;0.20;0.20;;;;;;;;;;5111798;28;20462;-58
2023/08/05 08:44:58;;;;;;;0.10;0.10;;;;;;;;;;5110499;27;20044;-59
2023/08/05 08:47:24;;;;;;;0.10;0.10;;;;;;;;;;5106603;28;20254;-59
2023/08/05 08:49:52;;;;;;;0.10;0.10;;;;;;;;;;5107669;28;20058;-58
2023/08/05 08:52:18;;;;;;;0.10;0.10;;;;;;;;;;5087361;28;20441;-59
2023/08/05 08:54:44;;;;;;;0.20;0.20;;;;;;;;;;5098288;28;20526;-58
2023/08/05 08:57:13;;;;;;;0.10;0.10;;;;;;;;;;5118025;28;20803;-59
2023/08/05 08:59:39;;;;;;;0.20;0.20;;;;;;;;;;5128010;28;20074;-59
2023/08/05 09:02:09;;;;;;;0.10;0.10;;;;;;;;;;5107693;28;20082;-58
2023/08/05 09:04:35;;;;;;;0.10;0.10;;;;;;;;;;5106213;28;20104;-59
2023/08/05 09:07:01;;;;;;;0.17;0.17;;;;;;;;;;5106537;28;20055;-59
2023/08/05 09:09:29;;;;;;;0.20;0.20;;;;;;;;;;5107546;28;20240;-58
2023/08/05 09:11:55;;;;;;;0.10;0.10;;;;;;;;;;5106203;28;20082;-59
2023/08/05 09:14:20;;;;;;;0.13;0.13;;;;;;;;;;5106833;28;20426;-59
2023/08/05 09:17:01;;;;;;;0.10;0.10;;;;;;;;;;5107220;28;20044;-58
2023/08/05 09:19:27;;;;;;;0.10;0.10;;;;;;;;;;5107411;28;20051;-58
2023/08/05 09:21:53;;;;;;;0.10;0.10;;;;;;;;;;5107037;28;20048;-59
2023/08/05 09:24:23;;;;;;;0.20;0.20;;;;;;;;;;5106876;28;20105;-59
2023/08/05 09:26:56;;;;;;;0.20;0.20;;;;;;;;;;5111690;28;20522;-59
2023/08/05 09:29:23;;;;;;;0.10;0.10;;;;;;;;;;5110465;28;20043;-59
2023/08/05 09:31:57;;;;;;;0.20;0.20;;;;;;;;;;5128152;28;20051;-59
2023/08/05 09:34:30;;;;;;;1.13;0.38;;;;;;;;;;5125977;28;20046;-59
2023/08/05 09:36:56;;;;;;;0.10;0.10;;;;;;;;;;5109730;28;20397;-58
2023/08/05 09:39:23;;;;;;;0.10;0.10;;;;;;;;;;5110457;28;20264;-58
2023/08/05 09:41:50;;;;;;;0.10;0.10;;;;;;;;;;5110148;28;20220;-59
2023/08/05 09:44:16;;;;;;;0.10;0.10;;;;;;;;;;5110414;28;20067;-58
2023/08/05 09:46:41;;;;;;;0.20;0.20;;;;;;;;;;5120056;28;20047;-58
2023/08/05 09:49:08;;;;;;;0.10;0.10;;;;;;;;;;5119628;28;20040;-59
2023/08/05 09:51:35;;;;;;;0.15;0.15;;;;;;;;;;5110873;28;20079;-58
2023/08/05 09:54:02;;;;;;;0.20;0.20;;;;;;;;;;5109841;28;20408;-59
2023/08/05 09:56:30;;;;;;;0.10;0.10;;;;;;;;;;5121200;28;20055;-59
2023/08/05 09:58:56;;;;;;;0.10;0.10;;;;;;;;;;5126779;28;20051;-58
2023/08/05 10:01:21;;;;;;;0.10;0.10;;;;;;;;;;5109965;28;20655;-58
2023/08/05 10:03:48;;;;;;;0.10;0.10;;;;;;;;;;5110293;28;20130;-58
2023/08/05 10:06:13;;;;;;;0.10;0.10;;;;;;;;;;5110199;28;20549;-59
2023/08/05 10:08:40;;;;;;;0.10;0.10;;;;;;;;;;5110233;28;20047;-59
2023/08/05 10:11:06;;;;;;;0.10;0.10;;;;;;;;;;5109136;28;20063;-59
2023/08/05 10:13:35;;;;;;;0.10;0.10;;;;;;;;;;5109866;28;20055;-59
2023/08/05 10:16:01;;;;;;;0.13;0.13;;;;;;;;;;5110857;28;20051;-59
2023/08/05 10:18:27;;;;;;;0.20;0.20;;;;;;;;;;5109861;28;20048;-59
2023/08/05 10:20:52;;;;;;;0.20;0.20;;;;;;;;;;5109665;28;20059;-59
2023/08/05 10:23:18;;;;;;;0.10;0.10;;;;;;;;;;5118781;28;20051;-59
2023/08/05 10:25:44;;;;;;;0.10;0.10;;;;;;;;;;5110422;28;20138;-59
2023/08/05 10:28:31;;;;;;;0.10;0.10;;;;;;;;;;5109763;28;20055;-59
2023/08/05 10:30:57;;;;;;;0.10;0.10;;;;;;;;;;5094972;28;20140;-59
2023/08/05 10:33:24;;;;;;;0.20;0.20;;;;;;;;;;5110148;28;20453;-59
2023/08/05 10:35:50;;;;;;;0.10;0.10;;;;;;;;;;5113120;28;20051;-58
2023/08/05 10:38:19;;;;;;;0.20;0.20;;;;;;;;;;5109990;28;20048;-59
2023/08/05 10:40:47;;;;;;;0.20;0.20;;;;;;;;;;5107314;28;20055;-59
2023/08/05 10:43:25;;;;;;;0.10;0.10;;;;;;;;;;5108763;28;20050;-59
2023/08/05 10:45:50;;;;;;;0.20;0.20;;;;;;;;;;5115294;27;20043;-59
2023/08/05 10:48:16;;;;;;;0.10;0.10;;;;;;;;;;5119114;28;20403;-59
2023/08/05 10:50:42;;;;;;;0.10;0.10;;;;;;;;;;5121432;28;20078;-58
2023/08/05 10:53:09;;;;;;;0.15;0.15;;;;;;;;;;5109000;28;20040;-59
2023/08/05 10:55:54;;;;;;;0.10;0.10;;;;;;;;;;5109376;28;20079;-58
2023/08/05 10:58:21;;;;;;;0.10;0.10;;;;;;;;;;5109257;28;20785;-58
2023/08/05 11:00:55;;;;;;;0.10;0.10;;;;;;;;;;5118663;28;20051;-58
2023/08/05 11:03:23;;;;;;;0.10;0.10;;;;;;;;;;5129476;28;20619;-59
2023/08/05 11:05:49;;;;;;;0.10;0.10;;;;;;;;;;5121452;28;20078;-59
2023/08/05 11:08:18;;;;;;;0.15;0.15;;;;;;;;;;5108620;28;20491;-59
2023/08/05 11:10:47;;;;;;;0.20;0.20;;;;;;;;;;5107814;28;20050;-58
2023/08/05 11:13:12;;;;;;;0.15;0.15;;;;;;;;;;5107989;28;20044;-58
2023/08/05 11:15:40;;;;;;;0.10;0.10;;;;;;;;;;5107961;28;20399;-59
2023/08/05 11:18:06;;;;;;;0.10;0.10;;;;;;;;;;5108334;28;20047;-59
2023/08/05 11:20:33;;;;;;;0.13;0.13;;;;;;;;;;5108291;28;20560;-58
2023/08/05 11:22:59;;;;;;;0.10;0.10;;;;;;;;;;5108657;28;20047;-59
2023/08/05 11:25:24;;;;;;;0.15;0.15;;;;;;;;;;5109901;28;20126;-58
2023/08/05 11:27:53;;;;;;;0.10;0.10;;;;;;;;;;5109038;28;20472;-58
2023/08/05 11:30:18;;;;;;;;;;;;;;;;;;5110140;28;20247;-59
2023/08/05 11:32:48;;;;;;;0.20;0.20;;;;;;;;;;5108212;28;19920;-59
2023/08/05 11:35:13;;;;;;;0.20;0.20;;;;;;;;;;5119783;28;20044;-59
2023/08/05 11:37:39;;;;;;;0.10;0.10;;;;;;;;;;5122316;28;20058;-58
2023/08/05 11:40:04;;;;;;;0.10;0.10;;;;;;;;;;5126465;28;20058;-59
2023/08/05 11:42:36;;;;;;;0.10;0.10;;;;;;;;;;5108591;28;20043;-58
2023/08/05 11:45:01;;;;;;;0.20;0.20;;;;;;;;;;5099187;28;20044;-58
2023/08/05 11:47:27;;;;;;;0.20;0.20;;;;;;;;;;5120860;28;20104;-59
2023/08/05 11:49:54;;;;;;;0.10;0.10;;;;;;;;;;5122254;27;20040;-59
2023/08/05 11:52:20;;;;;;;0.10;0.10;;;;;;;;;;5108621;28;20062;-58
2023/08/05 11:54:54;;;;;;;0.10;0.10;;;;;;;;;;5108240;28;20051;-59
2023/08/05 11:57:20;;;;;;;0.20;0.20;;;;;;;;;;5108297;28;20055;-59
2023/08/05 11:59:46;;;;;;;0.10;0.10;;;;;;;;;;5108202;28;20048;-59
2023/08/05 12:02:15;;;;;;;0.20;0.20;;;;;;;;;;5108403;28;20482;-58
2023/08/05 12:04:42;;;;;;;0.20;0.20;;;;;;;;;;5128170;28;20518;-58
2023/08/05 12:07:11;;;;;;;0.10;0.10;;;;;;;;;;5112021;28;20220;-59
2023/08/05 12:09:37;;;;;;;0.20;0.20;;;;;;;;;;5108058;28;20040;-58
2023/08/05 12:12:02;;;;;;;0.20;0.20;;;;;;;;;;5107387;28;20139;-59
2023/08/05 12:14:28;;;;;;;0.10;0.10;;;;;;;;;;5107781;28;20108;-58
2023/08/05 12:16:59;;;;;;;0.20;0.20;;;;;;;;;;5107776;28;20054;-59
2023/08/05 12:19:26;;;;;;;0.15;0.15;;;;;;;;;;5107652;28;20048;-59
2023/08/05 12:21:52;;;;;;;0.10;0.10;;;;;;;;;;5107586;28;20047;-59
2023/08/05 12:24:18;;;;;;;0.20;0.20;;;;;;;;;;5107078;28;20050;-59
2023/08/05 12:26:43;;;;;;;0.10;0.10;;;;;;;;;;5118342;28;20043;-58
2023/08/05 12:29:09;;;;;;;0.20;0.20;;;;;;;;;;5107539;28;20050;-59
2023/08/05 12:31:34;;;;;;;0.10;0.10;;;;;;;;;;5112140;28;20531;-59
2023/08/05 12:34:00;;;;;;;0.20;0.20;;;;;;;;;;5106977;28;20069;-58
2023/08/05 12:36:26;;;;;;;0.10;0.10;;;;;;;;;;5117235;28;20073;-58
2023/08/05 12:38:53;;;;;;;0.10;0.10;;;;;;;;;;5127272;28;20076;-59
2023/08/05 12:41:18;;;;;;;0.13;0.13;;;;;;;;;;5114467;28;20047;-59
2023/08/05 12:43:44;;;;;;;0.10;0.10;;;;;;;;;;5107461;28;20155;-59
2023/08/05 12:46:10;;;;;;;0.10;0.10;;;;;;;;;;5108412;28;20044;-59
2023/08/05 12:48:35;;;;;;;0.10;0.10;;;;;;;;;;5109188;28;20058;-59
2023/08/05 12:51:01;;;;;;;0.20;0.20;;;;;;;;;;5117379;28;20048;-59
2023/08/05 12:53:26;;;;;;;0.20;0.20;;;;;;;;;;5122084;28;20047;-58
2023/08/05 12:55:52;;;;;;;0.20;0.20;;;;;;;;;;5107778;28;20419;-59
2023/08/05 12:58:18;;;;;;;0.20;0.20;;;;;;;;;;5107796;28;20055;-59
2023/08/05 13:00:43;;;;;;;0.20;0.20;;;;;;;;;;5107774;28;20478;-59
2023/08/05 13:03:09;;;;;;;0.17;0.17;;;;;;;;;;5110717;28;20051;-59
2023/08/05 13:05:35;;;;;;;0.20;0.20;;;;;;;;;;5127405;28;20483;-59
2023/08/05 13:08:00;;;;;;;0.10;0.10;;;;;;;;;;5110794;28;20499;-59
2023/08/05 13:10:26;;;;;;;0.10;0.10;;;;;;;;;;5110540;28;20101;-58
2023/08/05 13:12:51;;;;;;;0.20;0.20;;;;;;;;;;5110984;28;20047;-58
2023/08/05 13:15:17;;;;;;;0.10;0.10;;;;;;;;;;5110835;28;20088;-59
2023/08/05 13:17:43;;;;;;;0.20;0.20;;;;;;;;;;5108903;28;20097;-58
2023/08/05 13:20:08;;;;;;;0.20;0.20;;;;;;;;;;5110034;28;20511;-59
2023/08/05 13:22:34;;;;;;;0.20;0.20;;;;;;;;;;5110636;28;20063;-59
2023/08/05 13:25:00;;;;;;;0.20;0.20;;;;;;;;;;5109635;28;20148;-61
2023/08/05 13:27:26;;;;;;;0.20;0.20;;;;;;;;;;5117027;28;20050;-61
2023/08/05 13:29:52;;;;;;;0.20;0.20;;;;;;;;;;5127882;28;20051;-62
2023/08/05 13:32:17;;;;;;;0.10;0.10;;;;;;;;;;5109955;28;20047;-61
2023/08/05 13:34:43;;;;;;;0.10;0.10;;;;;;;;;;5109577;28;20043;-61
2023/08/05 13:37:08;;;;;;;0.20;0.20;;;;;;;;;;5114181;28;20039;-61
2023/08/05 13:39:34;;;;;;;0.13;0.13;;;;;;;;;;5130018;28;20055;-61
2023/08/05 13:42:00;;;;;;;0.13;0.13;;;;;;;;;;5110270;28;20066;-62
2023/08/05 13:44:26;;;;;;;0.20;0.20;;;;;;;;;;5102864;28;20052;-61
2023/08/05 13:46:52;;;;;;;0.20;0.20;;;;;;;;;;5110600;28;20073;-61
2023/08/05 13:49:18;;;;;;;0.10;0.10;;;;;;;;;;5109970;28;20055;-62
2023/08/05 13:51:43;;;;;;;0.10;0.10;;;;;;;;;;5110657;28;20048;-62
2023/08/05 13:54:10;;;;;;;0.20;0.20;;;;;;;;;;5111666;28;20055;-61
2023/08/05 13:56:37;;;;;;;0.20;0.20;;;;;;;;;;5115032;28;20086;-61
2023/08/05 13:59:02;;;;;;;0.20;0.20;;;;;;;;;;5109846;28;20047;-61
2023/08/05 14:01:28;;;;;;;0.10;0.10;;;;;;;;;;5110150;28;20048;-61
2023/08/05 14:03:54;;;;;;;0.20;0.20;;;;;;;;;;5120881;28;20534;-61
2023/08/05 14:06:19;;;;;;;0.10;0.10;;;;;;;;;;5120832;28;20048;-61
2023/08/05 14:08:45;;;;;;;0.20;0.20;;;;;;;;;;5109513;28;20047;-61
2023/08/05 14:11:13;;;;;;;0.20;0.20;;;;;;;;;;5108960;28;20068;-61
2023/08/05 14:13:38;;;;;;;0.20;0.20;;;;;;;;;;5108689;28;20035;-61
2023/08/05 14:16:04;;;;;;;0.10;0.10;;;;;;;;;;5109280;28;20052;-61
2023/08/05 14:18:29;;;;;;;0.10;0.10;;;;;;;;;;5109753;28;20097;-62
2023/08/05 14:20:55;;;;;;;0.13;0.13;;;;;;;;;;5109716;28;20468;-61
2023/08/05 14:23:21;;;;;;;0.20;0.20;;;;;;;;;;5109121;28;20056;-61
2023/08/05 14:25:46;;;;;;;0.10;0.10;;;;;;;;;;5108815;28;20396;-61
2023/08/05 14:28:12;;;;;;;0.20;0.20;;;;;;;;;;5111055;28;20083;-61
2023/08/05 14:30:39;;;;;;;0.15;0.15;;;;;;;;;;5113525;28;20502;-61
2023/08/05 14:33:05;;;;;;;0.20;0.20;;;;;;;;;;5109315;28;20555;-61
2023/08/05 14:35:31;;;;;;;0.10;0.10;;;;;;;;;;5113575;28;20101;-62
2023/08/05 14:37:57;;;;;;;0.20;0.20;;;;;;;;;;5109249;28;20060;-61
2023/08/05 14:40:22;;;;;;;0.15;0.15;;;;;;;;;;5110165;28;20075;-61